Monday, October 23, 2017, 1:10 PM EDT
Back to Local

KMQE, Milton Blue Hill Observ

Location: Milton, MA, United States Lat: 42.217
Local Time: 1:10 PM EDT (17:10 GMT) Lon: -71.117
Time Zone: US/Eastern Elev: 629 ft

Show me the last for .
Show Decoded

2017-10-23 12:56 METAR KMQE 231656Z AUTO 19008KT 17/14 A3030 RMK AO1 SLP270 T01720139 =
2017-10-23 11:56 METAR KMQE 231556Z AUTO 17004KT 16/14 A3033 RMK AO1 SLP281 T01610144 =
2017-10-23 10:56 METAR KMQE 231456Z AUTO 13004KT 14/13 A3034 RMK AO1 SLP286 T01440133 58010 =
2017-10-23 09:56 METAR KMQE 231356Z AUTO VRB04KT 13/12 A3036 RMK AO1 SLP293 T01280122 =
2017-10-23 08:56 METAR KMQE 231256Z AUTO 13004KT 12/11 A3038 RMK AO1 SLP299 T01170111 =
2017-10-23 07:56 METAR KMQE 231156Z AUTO 14003KT 11/10 A3037 RMK AO1 SLP298 T01060100 10117 20100
                 53002 =
2017-10-23 06:56 METAR KMQE 231056Z AUTO 00000KT 11/09 A3036 RMK AO1 SLP294 T01060094 =
2017-10-23 05:56 METAR KMQE 230956Z AUTO 00000KT 11/11 A3036 RMK AO1 SLP293 T01110106 =
2017-10-23 04:56 METAR KMQE 230856Z AUTO 13005KT 12/11 A3037 RMK AO1 SLP295 T01170106 56006 =
2017-10-23 03:56 METAR KMQE 230756Z AUTO 00000KT 11/11 A3037 RMK AO1 SLP295 T01110106 =
2017-10-23 02:56 METAR KMQE 230656Z AUTO 00000KT 12/11 A3038 RMK AO1 SLP297 T01170106 =
2017-10-23 01:56 METAR KMQE 230556Z AUTO 00000KT 12/11 A3039 RMK AO1 SLP299 T01220111 10122 20122
                 58006 =
2017-10-23 00:56 METAR KMQE 230456Z AUTO 00000KT 12/12 A3040 RMK AO1 SLP303 T01220117 402280122 =
2017-10-22 23:56 METAR KMQE 230356Z AUTO 00000KT 12/12 A3040 RMK AO1 SLP304 T01220117 =
2017-10-22 22:56 METAR KMQE 230256Z AUTO 07003KT 12/12 A3040 RMK AO1 SLP305 T01220117 50005 =
2017-10-22 21:56 METAR KMQE 230156Z AUTO 09005KT 12/12 A3041 RMK AO1 SLP307 T01220117 =
2017-10-22 20:56 METAR KMQE 230056Z AUTO 07007KT 12/12 A3040 RMK AO1 SLP305 T01220117 =
2017-10-22 19:56 METAR KMQE 222356Z AUTO 07010KT 12/12 A3039 RMK AO1 SLP301 T01220117 10211 20122
                 53004 =
2017-10-22 18:56 METAR KMQE 222256Z AUTO 07010KT 13/12 A3038 RMK AO1 SLP299 T01280117 =
2017-10-22 17:56 METAR KMQE 222156Z AUTO 08013KT 13/12 A3038 RMK AO1 SLP299 T01330117 =
2017-10-22 16:56 METAR KMQE 222056Z AUTO 07011KT 15/12 A3038 RMK AO1 SLP296 T01500122 55001 =
2017-10-22 15:56 METAR KMQE 221956Z AUTO 07012KT 16/12 A3037 RMK AO1 SLP296 T01560122 =
2017-10-22 14:56 METAR KMQE 221856Z AUTO 07010KT 19/12 A3038 RMK AO1 SLP296 T01890117 =
2017-10-22 13:56 METAR KMQE 221756Z AUTO 06009KT 21/10 A3038 RMK AO1 SLP297 T02060100 10228 20161
                 58007 =

Support USWX by starting your Amazon purchase here.